Thunder radar more information blitzortung!


Radar de pluja more information rain snow radar


Visita la nostra xarxa de llocs de meteo:

Template documentation
and downloads

And another site



No particular awareness of the weather is required.    There are no Weather-warnings

Pagina Historial Weather Underground text

Diari Resum Setembre 1, 2017 Unitats:  Imperial    Mètric   Tant
« Previous Dia
SegĂźent Dia »
Diari Setmana Mensual Anual Personalitzada
  Maxima: Minima: Media:
Temperatura: TemperatureC °F 16.6 °F 21.9 °F
Punt de rosada: DewpointC °F 8.1 °F 13.6 °F
Humitat: Humidity % 39 % 61 %
Wind Speed: WindSpeedKMH mph 0.0 mph 5.2 mph
RĂ fegues de vent: WindSpeedGustKMH mph - -
Vent:- - South
Pression baro: PressurehPa in 1014.8 in -
Precipitacions: 0.0 in    
Historical Graphs
 
 
Dades de taula per Setembre 1, 2017
Temps Temperatura Punt de rosada Pression baro Vent Wind Speed RĂ fegues de vent Humitat Rainfall Rate (Hourly)
TemperatureC °F DewpointC °F PressurehPa in Calm     Humidity % HourlyPrecipMM in
00:00 19.7 °F 15.8 °F 1017.8 in North 3.7 mph 3.7 mph 78 % 0.0 in
00:05 19.6 °F 15.8 °F 1017.8 in WNW 1.9 mph   79 % 0.0 in
00:10 17.5 °F 15.5 °F 1017.8 in NNE 1.6 mph 3.2 mph 88 % 0.0 in
00:20 17.5 °F 15.5 °F 1017.8 in Calm   1.6 mph 88 % 0.0 in
00:30 17.3 °F 15.3 °F 1017.8 in North 1.6 mph 3.2 mph 88 % 0.0 in
00:50 17.3 °F 15.4 °F 1017.8 in WSW 1.6 mph 3.2 mph 89 % 0.0 in
01:00 17.3 °F 15.4 °F 1017.8 in Calm     89 % 0.0 in
01:10 17.2 °F 15.4 °F 1017.8 in Calm     89 % 0.0 in
01:20 17.1 °F 15.3 °F 1017.8 in Calm   1.6 mph 89 % 0.0 in
01:30 17.0 °F 15.2 °F 1017.8 in WSW 1.6 mph 3.2 mph 89 % 0.0 in
01:40 17.0 °F 15.2 °F 1017.8 in WSW 1.6 mph 3.2 mph 89 % 0.0 in
01:50 17.0 °F 15.3 °F 1017.8 in SW 1.6 mph 3.2 mph 90 % 0.0 in
02:00 16.9 °F 15.2 °F 1017.8 in SW 1.6 mph 3.2 mph 90 % 0.0 in
02:10 16.9 °F 15.2 °F 1017.8 in SW 1.6 mph 3.2 mph 90 % 0.0 in
02:20 16.9 °F 15.4 °F 1017.8 in Calm     91 % 0.0 in
02:30 16.9 °F 15.4 °F 1017.8 in Calm   3.2 mph 91 % 0.0 in
02:40 16.8 °F 15.5 °F 1017.8 in Calm   1.6 mph 92 % 0.0 in
02:50 16.8 °F 15.5 °F 1017.8 in NNE 3.2 mph 3.2 mph 92 % 0.0 in
03:00 16.9 °F 15.6 °F 1017.8 in Calm   4.8 mph 92 % 0.0 in
03:10 16.8 °F 15.5 °F 1017.8 in Calm   3.2 mph 92 % 0.0 in
03:20 16.8 °F 15.5 °F 1016.8 in NE 1.6 mph 4.8 mph 92 % 0.0 in
03:30 16.8 °F 15.5 °F 1016.8 in NE 1.6 mph 3.2 mph 92 % 0.0 in
03:40 16.8 °F 15.5 °F 1016.8 in Calm     92 % 0.0 in
03:50 16.9 °F 15.6 °F 1017.8 in Calm     92 % 0.0 in
04:00 16.9 °F 15.6 °F 1016.8 in Calm   1.6 mph 92 % 0.0 in
04:10 17.0 °F 15.5 °F 1016.8 in Calm   1.6 mph 91 % 0.0 in
04:20 17.0 °F 15.7 °F 1017.8 in North 1.6 mph 1.6 mph 92 % 0.0 in
04:30 17.0 °F 15.5 °F 1017.8 in SSW 1.6 mph 4.8 mph 91 % 0.0 in
04:40 17.0 °F 15.5 °F 1017.8 in Calm   3.2 mph 91 % 0.0 in
04:50 17.1 °F 15.8 °F 1018.8 in WSW 1.6 mph 3.2 mph 92 % 0.0 in
05:00 16.6 °F 14.8 °F 1018.8 in West 1.6 mph 1.6 mph 89 % 0.0 in
05:10 16.8 °F 14.4 °F 1018.8 in Calm   3.2 mph 86 % 0.0 in
05:20 17.2 °F 14.3 °F 1018.8 in WSW 3.2 mph 4.8 mph 83 % 0.0 in
05:30 17.5 °F 13.8 °F 1018.8 in WSW 1.6 mph 3.2 mph 79 % 0.0 in
05:40 17.8 °F 13.7 °F 1018.8 in Calm   1.6 mph 77 % 0.0 in
05:50 18.0 °F 13.7 °F 1018.8 in West 1.6 mph 4.8 mph 76 % 0.0 in
06:00 18.0 °F 13.5 °F 1018.8 in West 1.6 mph 3.2 mph 75 % 0.0 in
06:10 18.0 °F 13.1 °F 1018.8 in Calm   3.2 mph 73 % 0.0 in
11:13 19.6 °F 13.3 °F 1018.8 in WSW 3.2 mph 3.2 mph 67 % 0.0 in
11:14 19.6 °F 13.3 °F 1018.8 in WSW 3.2 mph 3.2 mph 67 % 0.0 in
11:15 19.6 °F 13.6 °F 1018.8 in SSW 7.4 mph 7.4 mph 68 % 0.0 in
11:20 19.7 °F 13.4 °F 1018.8 in West 5.6 mph 5.6 mph 67 % 0.0 in
11:25 20.0 °F 13.2 °F 1018.8 in WSW 5.6 mph 5.6 mph 65 % 0.0 in
11:30 20.1 °F 13.3 °F 1018.8 in NNW 5.6 mph 5.6 mph 65 % 0.0 in
11:35 20.4 °F 13.6 °F 1018.8 in West 3.7 mph 3.7 mph 65 % 0.0 in
11:40 20.8 °F 13.7 °F 1018.8 in SW 1.4 mph   64 % 0.0 in
11:45 21.2 °F 14.1 °F 1018.8 in WSW 9.3 mph 9.3 mph 64 % 0.0 in
11:46 21.2 °F 14.1 °F 1018.8 in WNW 5.6 mph 5.6 mph 64 % 0.0 in
11:51 21.5 °F 14.2 °F 1018.8 in SW 5.6 mph 5.6 mph 63 % 0.0 in
11:56 22.0 °F 14.4 °F 1018.8 in WSW 5.6 mph 5.6 mph 62 % 0.0 in
12:01 22.1 °F 14.2 °F 1018.8 in NNE 5.6 mph 5.6 mph 61 % 0.0 in
12:06 22.3 °F 13.9 °F 1018.8 in SW 9.3 mph 9.3 mph 59 % 0.0 in
12:11 22.4 °F 14.0 °F 1017.8 in WSW 11.9 mph 11.9 mph 59 % 0.0 in
12:16 22.5 °F 13.8 °F 1017.8 in SE 3.7 mph 3.7 mph 58 % 0.0 in
12:21 22.8 °F 13.8 °F 1017.8 in WSW 5.6 mph 5.6 mph 57 % 0.0 in
12:26 22.7 °F 13.7 °F 1017.8 in West 3.7 mph 3.7 mph 57 % 0.0 in
12:31 22.5 °F 13.6 °F 1017.8 in SW 7.4 mph 7.4 mph 57 % 0.0 in
12:36 22.6 °F 13.7 °F 1017.8 in SW 5.6 mph 5.6 mph 57 % 0.0 in
12:41 22.4 °F 13.4 °F 1017.8 in West 5.6 mph 5.6 mph 57 % 0.0 in
12:46 22.2 °F 13.3 °F 1017.8 in West 5.8 mph 5.8 mph 57 % 0.0 in
12:51 21.8 °F 12.9 °F 1017.8 in SW 5.6 mph 5.6 mph 57 % 0.0 in
12:56 21.7 °F 13.1 °F 1017.8 in SW 7.4 mph 7.4 mph 58 % 0.0 in
13:01 21.3 °F 12.4 °F 1017.8 in WSW 9.3 mph 9.3 mph 57 % 0.0 in
13:06 21.3 °F 12.4 °F 1017.8 in West 6.1 mph 6.1 mph 57 % 0.0 in
13:11 21.5 °F 12.6 °F 1017.8 in WSW 12.2 mph 12.2 mph 57 % 0.0 in
13:16 21.8 °F 12.6 °F 1017.8 in WSW 9.3 mph 9.3 mph 56 % 0.0 in
13:21 22.1 °F 12.3 °F 1017.8 in WNW 7.4 mph 7.4 mph 54 % 0.0 in
13:26 22.6 °F 12.8 °F 1017.8 in WSW 5.6 mph 5.6 mph 54 % 0.0 in
13:31 22.7 °F 12.9 °F 1017.8 in West 3.7 mph 3.7 mph 54 % 0.0 in
13:36 23.3 °F 13.4 °F 1017.8 in SW 3.7 mph 3.7 mph 54 % 0.0 in
13:41 23.8 °F 13.7 °F 1017.8 in WSW 4.2 mph 4.2 mph 53 % 0.0 in
13:46 23.5 °F 13.1 °F 1017.8 in SW 7.4 mph 7.4 mph 52 % 0.0 in
13:51 23.4 °F 13.3 °F 1017.8 in West 5.6 mph 5.6 mph 53 % 0.0 in
13:56 24.1 °F 13.3 °F 1017.8 in WSW 11.1 mph 11.1 mph 51 % 0.0 in
14:01 24.1 °F 13.3 °F 1017.8 in SSW 9.3 mph 9.3 mph 51 % 0.0 in
14:06 24.4 °F 13.3 °F 1017.8 in SW 5.6 mph 5.6 mph 50 % 0.0 in
14:11 25.0 °F 13.2 °F 1017.8 in SSE 7.4 mph 7.4 mph 48 % 0.0 in
14:16 25.1 °F 13.3 °F 1017.8 in ENE 5.6 mph 5.6 mph 48 % 0.0 in
14:21 25.6 °F 13.8 °F 1017.8 in SW 9.3 mph 9.3 mph 48 % 0.0 in
14:26 25.7 °F 13.9 °F 1017.8 in SSW 5.6 mph 5.6 mph 48 % 0.0 in
14:31 26.0 °F 13.8 °F 1017.8 in WNW 9.3 mph 9.3 mph 47 % 0.0 in
14:36 26.1 °F 13.9 °F 1017.8 in SSE 9.3 mph 9.3 mph 47 % 0.0 in
14:41 26.4 °F 13.8 °F 1017.8 in West 3.9 mph 3.9 mph 46 % 0.0 in
14:46 26.5 °F 13.6 °F 1017.8 in SW 7.4 mph 7.4 mph 45 % 0.0 in
14:51 26.8 °F 13.9 °F 1017.8 in South 9.3 mph 9.3 mph 45 % 0.0 in
14:56 26.9 °F 13.6 °F 1016.8 in West 5.6 mph 5.6 mph 44 % 0.0 in
15:01 26.4 °F 12.8 °F 1016.8 in SSW 5.6 mph 5.6 mph 43 % 0.0 in
15:06 26.5 °F 12.9 °F 1016.8 in ESE 13.0 mph 13.0 mph 43 % 0.0 in
15:11 26.7 °F 13.1 °F 1016.8 in West 5.6 mph 5.6 mph 43 % 0.0 in
15:16 26.8 °F 13.5 °F 1016.8 in SSW 7.4 mph 7.4 mph 44 % 0.0 in
15:21 26.9 °F 13.3 °F 1016.8 in WSW 13.0 mph 13.0 mph 43 % 0.0 in
15:26 27.1 °F 11.9 °F 1015.8 in SE 7.4 mph 7.4 mph 39 % 0.0 in
15:31 27.3 °F 12.5 °F 1015.8 in East 7.4 mph 7.4 mph 40 % 0.0 in
15:36 26.9 °F 12.2 °F 1015.8 in ESE 3.7 mph 3.9 mph 40 % 0.0 in
15:41 26.9 °F 12.2 °F 1015.8 in South 11.1 mph 11.1 mph 40 % 0.0 in
15:46 27.4 °F 12.2 °F 1015.8 in WSW 9.3 mph 9.3 mph 39 % 0.0 in
15:51 27.3 °F 12.5 °F 1015.8 in SW 13.0 mph 13.0 mph 40 % 0.0 in
15:56 27.2 °F 12.4 °F 1015.8 in WSW 5.8 mph 5.8 mph 40 % 0.0 in
16:01 27.0 °F 12.2 °F 1015.8 in SW 5.6 mph 5.6 mph 40 % 0.0 in
16:06 26.6 °F 12.3 °F 1015.8 in SW 7.4 mph 7.4 mph 41 % 0.0 in
16:11 26.2 °F 11.6 °F 1015.8 in East 3.7 mph 3.7 mph 40 % 0.0 in
16:16 25.8 °F 11.6 °F 1015.8 in SE 7.4 mph 7.4 mph 41 % 0.0 in
16:21 26.2 °F 12.3 °F 1015.8 in SW 4.7 mph 4.7 mph 42 % 0.0 in
16:26 26.8 °F 13.2 °F 1015.8 in WSW 7.4 mph 7.4 mph 43 % 0.0 in
16:31 27.5 °F 13.1 °F 1015.8 in SW 5.6 mph 5.6 mph 41 % 0.0 in
16:36 27.7 °F 13.6 °F 1015.8 in WNW 5.6 mph 5.6 mph 42 % 0.0 in
16:41 27.8 °F 13.7 °F 1015.8 in SW 13.0 mph 13.0 mph 42 % 0.0 in
16:46 27.5 °F 13.4 °F 1015.8 in SSW 11.1 mph 11.1 mph 42 % 0.0 in
16:51 27.1 °F 13.4 °F 1015.8 in WSW 11.1 mph 11.1 mph 43 % 0.0 in
16:56 27.2 °F 13.6 °F 1015.8 in WSW 7.4 mph 7.4 mph 43 % 0.0 in
17:01 27.5 °F 14.2 °F 1015.8 in SSW 9.3 mph 9.3 mph 44 % 0.0 in
17:06 27.3 °F 14.0 °F 1015.8 in WSW 11.1 mph 11.1 mph 44 % 0.0 in
17:11 27.1 °F 13.8 °F 1015.8 in South 5.6 mph 5.6 mph 44 % 0.0 in
17:16 27.2 °F 14.2 °F 1015.8 in WSW 11.1 mph 11.1 mph 45 % 0.0 in
17:21 26.8 °F 14.2 °F 1015.8 in SSE 11.1 mph 11.1 mph 46 % 0.0 in
17:26 27.1 °F 14.2 °F 1014.8 in SW 9.3 mph 9.3 mph 45 % 0.0 in
17:31 27.1 °F 14.2 °F 1014.8 in SW 13.0 mph 13.0 mph 45 % 0.0 in
17:36 26.6 °F 14.1 °F 1014.8 in SSW 9.3 mph 9.3 mph 46 % 0.0 in
17:41 26.7 °F 14.1 °F 1014.8 in SW 13.0 mph 13.0 mph 46 % 0.0 in
17:46 26.9 °F 14.3 °F 1014.8 in WSW 9.3 mph 9.3 mph 46 % 0.0 in
17:51 27.3 °F 14.3 °F 1014.8 in WSW 9.3 mph 9.3 mph 45 % 0.0 in
17:56 27.1 °F 13.8 °F 1014.8 in SW 9.3 mph 9.3 mph 44 % 0.0 in
18:01 26.9 °F 13.6 °F 1014.8 in SSW 11.1 mph 11.1 mph 44 % 0.0 in
18:06 26.8 °F 13.5 °F 1014.8 in WSW 9.3 mph 9.3 mph 44 % 0.0 in
18:11 26.7 °F 13.1 °F 1014.8 in SSW 9.3 mph 9.3 mph 43 % 0.0 in
18:16 26.5 °F 12.9 °F 1014.8 in SW 13.0 mph 13.0 mph 43 % 0.0 in
18:21 26.2 °F 12.6 °F 1014.8 in South 9.3 mph 9.3 mph 43 % 0.0 in
18:26 26.4 °F 13.2 °F 1014.8 in South 9.3 mph 9.3 mph 44 % 0.0 in
18:31 26.2 °F 12.6 °F 1014.8 in SW 9.3 mph 9.3 mph 43 % 0.0 in
18:36 26.2 °F 12.6 °F 1014.8 in WSW 9.3 mph 9.3 mph 43 % 0.0 in
18:41 26.1 °F 12.9 °F 1014.8 in WSW 9.7 mph 9.7 mph 44 % 0.0 in
18:46 25.7 °F 12.2 °F 1014.8 in SW 9.3 mph 9.3 mph 43 % 0.0 in
18:51 25.6 °F 11.7 °F 1014.8 in SW 13.7 mph 13.7 mph 42 % 0.0 in
18:56 25.5 °F 12.0 °F 1015.8 in South 9.3 mph 9.3 mph 43 % 0.0 in
19:01 25.5 °F 12.3 °F 1015.8 in WSW 9.7 mph 9.7 mph 44 % 0.0 in
19:02 25.5 °F 12.3 °F 1015.8 in South 9.7 mph 9.7 mph 44 % 0.0 in
19:07 25.2 °F 12.1 °F 1015.8 in SSW 7.4 mph 7.4 mph 44 % 0.0 in
19:10 20.3 °F 14.7 °F 1017.8 in ESE 1.6 mph 3.2 mph 70 % 0.0 in
19:12 24.9 °F 12.2 °F 1015.8 in SSW 9.3 mph 9.3 mph 45 % 0.0 in
19:17 24.8 °F 12.1 °F 1015.8 in SW 7.4 mph 7.4 mph 45 % 0.0 in
19:20 20.3 °F 14.7 °F 1017.8 in East 1.6 mph 3.2 mph 70 % 0.0 in
19:22 24.5 °F 12.1 °F 1015.8 in SW 9.3 mph 9.3 mph 46 % 0.0 in
19:27 24.3 °F 11.9 °F 1015.8 in WSW 9.3 mph 9.3 mph 46 % 0.0 in
19:30 20.2 °F 14.6 °F 1017.8 in Calm   1.6 mph 70 % 0.0 in
19:32 24.2 °F 12.2 °F 1015.8 in SSW 9.7 mph 9.7 mph 47 % 0.0 in
19:37 24.0 °F 12.0 °F 1015.8 in South 5.6 mph 5.6 mph 47 % 0.0 in
19:40 20.1 °F 14.4 °F 1017.8 in Calm   1.6 mph 70 % 0.0 in
19:42 23.9 °F 12.2 °F 1015.8 in SSW 9.3 mph 9.3 mph 48 % 0.0 in
19:47 23.7 °F 12.1 °F 1015.8 in SW 3.9 mph 3.9 mph 48 % 0.0 in
19:50 19.9 °F 14.7 °F 1017.8 in North 1.6 mph 3.2 mph 72 % 0.0 in
19:52 23.7 °F 12.1 °F 1015.8 in SSW 9.3 mph 9.3 mph 48 % 0.0 in
19:57 23.5 °F 11.8 °F 1015.8 in South 2.6 mph 2.6 mph 48 % 0.0 in
20:00 19.6 °F 14.4 °F 1017.8 in Calm     72 % 0.0 in
20:02 23.4 °F 12.1 °F 1015.8 in SSW 3.7 mph 5.3 mph 49 % 0.0 in
20:07 23.2 °F 12.2 °F 1015.8 in South 5.6 mph 5.6 mph 50 % 0.0 in
20:10 19.6 °F 14.6 °F 1017.8 in Calm     73 % 0.0 in
20:12 23.1 °F 12.1 °F 1015.8 in Calm     50 % 0.0 in
20:17 22.9 °F 12.8 °F 1015.8 in ENE 3.7 mph 3.7 mph 53 % 0.0 in
20:20 19.2 °F 14.2 °F 1017.8 in Calm   3.2 mph 73 % 0.0 in
20:22 22.4 °F 13.7 °F 1015.8 in SW 9.3 mph 9.3 mph 58 % 0.0 in
20:27 22.2 °F 13.8 °F 1015.8 in ESE 13.0 mph 13.0 mph 59 % 0.0 in
20:30 19.1 °F 14.3 °F 1017.8 in Calm   1.6 mph 74 % 0.0 in
20:32 22.0 °F 14.1 °F 1015.8 in ESE 9.3 mph 9.3 mph 61 % 0.0 in
20:37 21.8 °F 14.2 °F 1015.8 in ESE 9.3 mph 9.3 mph 62 % 0.0 in
20:40 19.2 °F 14.4 °F 1017.8 in SW 1.6 mph 3.2 mph 74 % 0.0 in
20:42 21.7 °F 14.1 °F 1015.8 in East 6.1 mph 6.9 mph 62 % 0.0 in
20:47 21.7 °F 14.6 °F 1015.8 in ESE 13.0 mph 13.0 mph 64 % 0.0 in
20:50 18.8 °F 14.3 °F 1017.8 in SSW 3.2 mph 3.2 mph 75 % 0.0 in
20:52 21.5 °F 14.4 °F 1015.8 in East 7.4 mph 7.4 mph 64 % 0.0 in
20:57 21.5 °F 14.7 °F 1015.8 in ESE 6.9 mph 6.9 mph 65 % 0.0 in
21:00 18.9 °F 14.6 °F 1017.8 in Calm   3.2 mph 76 % 0.0 in
21:02 21.4 °F 14.8 °F 1015.8 in ENE 9.5 mph 9.5 mph 66 % 0.0 in
21:07 21.3 °F 14.4 °F 1015.8 in East 7.4 mph 7.4 mph 65 % 0.0 in
21:10 19.0 °F 14.4 °F 1017.8 in Calm     75 % 0.0 in
21:12 21.3 °F 14.7 °F 1016.8 in ESE 9.3 mph 9.3 mph 66 % 0.0 in
21:17 21.3 °F 14.7 °F 1016.8 in ESE 7.4 mph 7.4 mph 66 % 0.0 in
21:20 19.1 °F 13.7 °F 1017.8 in Calm   1.6 mph 71 % 0.0 in
21:22 21.3 °F 14.7 °F 1016.8 in ESE 3.9 mph 5.3 mph 66 % 0.0 in
21:27 21.3 °F 14.7 °F 1016.8 in ESE 3.9 mph 5.3 mph 66 % 0.0 in
21:30 19.4 °F 13.1 °F 1017.8 in NNE 1.6 mph 1.6 mph 67 % 0.0 in
21:32 21.3 °F 14.7 °F 1016.8 in ESE 3.9 mph 5.3 mph 66 % 0.0 in
21:37 21.3 °F 14.7 °F 1016.8 in ESE 3.9 mph 5.3 mph 66 % 0.0 in
21:40 19.4 °F 12.9 °F 1017.8 in NNE 1.6 mph 3.2 mph 66 % 0.0 in
21:42 21.3 °F 14.7 °F 1016.8 in ESE 3.9 mph 5.3 mph 66 % 0.0 in
21:47 21.3 °F 14.7 °F 1016.8 in ESE 3.9 mph 5.3 mph 66 % 0.0 in
21:50 19.2 °F 12.4 °F 1017.8 in WSW 1.6 mph 3.2 mph 65 % 0.0 in
21:52 21.3 °F 14.7 °F 1016.8 in ESE 3.9 mph 5.3 mph 66 % 0.0 in
21:57 21.3 °F 14.7 °F 1016.8 in ESE 3.9 mph 5.3 mph 66 % 0.0 in
22:00 19.0 °F 12.1 °F 1016.8 in WSW 3.2 mph 3.2 mph 64 % 0.0 in
22:02 21.3 °F 14.7 °F 1016.8 in ESE 3.9 mph 5.3 mph 66 % 0.0 in
22:07 21.3 °F 14.7 °F 1016.8 in ESE 3.9 mph 5.3 mph 66 % 0.0 in
22:10 19.0 °F 11.1 °F 1016.8 in WSW 1.6 mph 4.8 mph 60 % 0.0 in
22:12 21.3 °F 14.7 °F 1016.8 in ESE 3.9 mph 5.3 mph 66 % 0.0 in
22:17 21.3 °F 14.7 °F 1016.8 in ESE 3.9 mph 5.3 mph 66 % 0.0 in
22:20 18.9 °F 10.7 °F 1017.8 in WSW 4.8 mph 4.8 mph 59 % 0.0 in
22:22 21.3 °F 14.7 °F 1016.8 in ESE 3.9 mph 5.3 mph 66 % 0.0 in
22:27 21.3 °F 14.7 °F 1016.8 in ESE 3.9 mph 5.3 mph 66 % 0.0 in
22:30 18.6 °F 10.4 °F 1017.8 in Calm   3.2 mph 59 % 0.0 in
22:32 21.3 °F 14.7 °F 1016.8 in ESE 3.9 mph 5.3 mph 66 % 0.0 in
22:37 21.3 °F 14.7 °F 1016.8 in ESE 3.9 mph 5.3 mph 66 % 0.0 in
22:40 18.6 °F 10.2 °F 1017.8 in WSW 3.2 mph 4.8 mph 58 % 0.0 in
22:42 21.3 °F 14.7 °F 1016.8 in ESE 3.9 mph 5.3 mph 66 % 0.0 in
22:47 21.3 °F 14.7 °F 1016.8 in ESE 3.9 mph 5.3 mph 66 % 0.0 in
22:50 18.5 °F 9.6 °F 1017.8 in West 3.2 mph 4.8 mph 56 % 0.0 in
22:52 21.3 °F 14.7 °F 1016.8 in ESE 3.9 mph 5.3 mph 66 % 0.0 in
22:57 21.3 °F 14.7 °F 1016.8 in ESE 3.9 mph 5.3 mph 66 % 0.0 in
23:00 18.3 °F 9.4 °F 1016.8 in West 3.2 mph 6.4 mph 56 % 0.0 in
23:02 21.3 °F 14.7 °F 1016.8 in ESE 3.9 mph 5.3 mph 66 % 0.0 in
23:07 21.3 °F 14.7 °F 1016.8 in ESE 3.9 mph 5.3 mph 66 % 0.0 in
23:10 18.0 °F 8.6 °F 1016.8 in West 1.6 mph 4.8 mph 54 % 0.0 in
23:12 21.3 °F 14.7 °F 1016.8 in ESE 3.9 mph 5.3 mph 66 % 0.0 in
23:17 21.3 °F 14.7 °F 1016.8 in ESE 3.9 mph 5.3 mph 66 % 0.0 in
23:20 17.7 °F 8.6 °F 1017.8 in WNW 3.2 mph 4.8 mph 55 % 0.0 in
23:22 21.3 °F 14.7 °F 1016.8 in ESE 3.9 mph 5.3 mph 66 % 0.0 in
23:27 21.3 °F 14.7 °F 1016.8 in ESE 3.9 mph 5.3 mph 66 % 0.0 in
23:30 17.4 °F 8.3 °F 1017.8 in West 1.6 mph 4.8 mph 55 % 0.0 in
23:32 21.3 °F 14.7 °F 1016.8 in ESE 3.9 mph 5.3 mph 66 % 0.0 in
23:37 21.3 °F 14.7 °F 1016.8 in ESE 3.9 mph 5.3 mph 66 % 0.0 in
23:40 17.0 °F 8.2 °F 1017.8 in WSW 1.6 mph 4.8 mph 56 % 0.0 in
23:42 21.3 °F 14.7 °F 1016.8 in ESE 3.9 mph 5.3 mph 66 % 0.0 in
23:47 21.3 °F 14.7 °F 1016.8 in ESE 3.9 mph 5.3 mph 66 % 0.0 in
23:50 16.7 °F 8.1 °F 1018.8 in WSW 1.6 mph 4.8 mph 57 % 0.0 in
23:52 21.3 °F 14.7 °F 1016.8 in ESE 3.9 mph 5.3 mph 66 % 0.0 in
23:57 21.3 °F 14.7 °F 1016.8 in ESE 3.9 mph 5.3 mph 66 % 0.0 in
Meteo Sesrovires
Elogis d' Weather Underground - 2 mb

Guio original per  Jim McMurry - jmcmurry@mwt.net Adaptat per a la plantilla per  Wim van der Kuil - Leuven-Template.eu

Trobareu la nostra informacio del temps tambe a:

Weather Underground

AWEKAS